Aviation Digital Data Service (ADDS)

Output produced by METARs form (0015 UTC 24 October 2019)
found at http://www.aviationweather.gov/metar/data/
 
Forecast for: KSDF (LOUISVILLE , KY, US)
Text: KSDF 232320Z 2400/2506 17006KT P6SM SCT250
Forecast period: 0000 to 1600 UTC 24 October 2019
Forecast type: FROM: standard forecast or significant change
Winds: from the S (170 degrees) at 7 MPH (6 knots; 3.1 m/s)
Visibility: 6 or more miles 10+ km)
Ceiling: at least 12,000 feet AGL
Clouds: scattered clouds at 25000 feet AGL
Weather: no significant weather forecast for this period
Text: FM241600 22007KT P6SM BKN250
Forecast period: 1600 to 2200 UTC 24 October 2019
Forecast type: FROM: standard forecast or significant change
Winds: from the SW (220 degrees) at 8 MPH (7 knots; 3.6 m/s)
Visibility: 6 or more miles 10+ km)
Ceiling: 25000 feet AGL
Clouds: broken clouds at 25000 feet AGL
Weather: no significant weather forecast for this period
Text: FM242200 35006KT P6SM SCT100 BKN250
Forecast period: 2200 UTC 24 October 2019 to 0600 UTC 25 October 2019
Forecast type: FROM: standard forecast or significant change
Winds: from the N (350 degrees) at 7 MPH (6 knots; 3.1 m/s)
Visibility: 6 or more miles 10+ km)
Ceiling: 25000 feet AGL
Clouds: scattered clouds at 10000 feet AGL
broken clouds at 25000 feet AGL
Weather: no significant weather forecast for this period